createdAt,value
2023-01-19T00:00:37.900Z,53802.88
2023-01-19T00:03:04.334Z,53804.94
2023-01-19T00:05:30.909Z,53802.88
2023-01-19T00:08:14.436Z,53811.13
2023-01-19T00:10:42.064Z,53798.72
2023-01-19T00:13:08.393Z,53778.06
2023-01-19T00:15:34.820Z,53823.53
2023-01-19T00:18:01.176Z,53804.94
2023-01-19T00:20:27.519Z,53788.41
2023-01-19T00:22:54.267Z,53778.06
2023-01-19T00:25:20.553Z,53802.88
2023-01-19T00:27:49.297Z,53796.66
2023-01-19T00:30:16.107Z,53786.31
2023-01-19T00:32:42.705Z,53765.66
2023-01-19T00:35:09.098Z,53776.00
2023-01-19T00:37:35.426Z,53798.72
2023-01-19T00:40:01.768Z,53794.59
2023-01-19T00:42:40.368Z,53792.53
2023-01-19T00:45:10.786Z,53815.28
2023-01-19T00:47:37.187Z,53800.81
2023-01-19T00:50:03.621Z,53778.06
2023-01-19T00:52:29.918Z,53776.00
2023-01-19T00:54:56.245Z,53794.59
2023-01-19T00:57:22.586Z,53778.06
2023-01-19T00:59:48.938Z,53819.41
2023-01-19T01:02:15.394Z,53800.81
2023-01-19T01:04:41.773Z,53771.84
2023-01-19T01:07:08.121Z,53798.72
2023-01-19T01:09:34.404Z,53780.13
2023-01-19T01:12:00.811Z,53759.44
2023-01-19T01:14:27.222Z,53759.44
2023-01-19T01:16:54.947Z,53773.91
2023-01-19T01:19:21.400Z,53813.19
2023-01-19T01:21:47.761Z,53815.28
2023-01-19T01:24:14.082Z,53771.84
2023-01-19T01:26:40.445Z,53776.00
2023-01-19T01:29:08.116Z,53782.19
2023-01-19T01:31:34.503Z,53765.66
2023-01-19T01:34:01.366Z,53792.53
2023-01-19T01:36:31.668Z,53786.31
2023-01-19T01:39:04.018Z,53773.91
2023-01-19T01:41:30.550Z,53773.91
2023-01-19T01:44:01.592Z,53800.81
2023-01-19T01:46:28.790Z,53782.19
2023-01-19T01:48:57.393Z,53761.50
2023-01-19T01:51:32.113Z,53765.66
2023-01-19T01:54:07.010Z,53790.47
2023-01-19T01:56:40.492Z,53778.06
2023-01-19T01:59:08.163Z,53790.47
2023-01-19T02:01:54.019Z,53761.50
2023-01-19T02:04:20.467Z,53782.19
2023-01-19T02:07:05.536Z,53792.53
2023-01-19T02:09:50.688Z,53765.66
2023-01-19T02:12:35.644Z,53782.19
2023-01-19T02:15:02.000Z,53788.41
2023-01-19T02:17:28.351Z,53796.66
2023-01-19T02:19:54.802Z,53765.66
2023-01-19T02:22:31.002Z,53771.84
2023-01-19T02:24:57.325Z,53763.59
2023-01-19T02:27:23.712Z,53802.88
2023-01-19T02:29:49.987Z,53796.66
2023-01-19T02:32:16.322Z,53782.19
2023-01-19T02:34:42.634Z,53761.50
2023-01-19T02:37:12.944Z,53763.59
2023-01-19T02:39:41.560Z,53788.41
2023-01-19T02:42:34.269Z,53782.19
2023-01-19T02:45:00.618Z,53771.84
2023-01-19T02:47:26.948Z,53790.47
2023-01-19T02:49:54.330Z,53751.19
2023-01-19T02:52:20.658Z,53786.31
2023-01-19T02:54:54.081Z,53761.50
2023-01-19T02:57:27.295Z,53769.78
2023-01-19T03:00:07.994Z,53773.91
2023-01-19T03:02:34.302Z,53798.72
2023-01-19T03:05:18.135Z,53769.78
2023-01-19T03:07:55.725Z,53776.00
2023-01-19T03:10:31.333Z,53778.06
2023-01-19T03:13:02.508Z,53778.06
2023-01-19T03:15:29.146Z,53759.44
2023-01-19T03:17:55.675Z,53769.78
2023-01-19T03:20:23.714Z,53771.84
2023-01-19T03:22:50.771Z,53771.84
2023-01-19T03:25:17.373Z,53786.31
2023-01-19T03:27:43.706Z,53761.50
2023-01-19T03:30:13.964Z,53790.47
2023-01-19T03:32:42.060Z,53780.13
2023-01-19T03:35:09.701Z,53765.66
2023-01-19T03:37:37.442Z,53782.19
2023-01-19T03:40:03.860Z,53763.59
2023-01-19T03:42:30.199Z,53790.47
2023-01-19T03:44:56.492Z,53773.91
2023-01-19T03:47:22.798Z,53778.06
2023-01-19T03:49:49.359Z,53763.59
2023-01-19T03:52:15.703Z,53767.72
2023-01-19T03:54:42.033Z,53769.78
2023-01-19T03:57:08.357Z,53749.09
2023-01-19T03:59:35.019Z,53753.25
2023-01-19T04:02:01.407Z,53757.38
2023-01-19T04:04:27.969Z,53765.66
2023-01-19T04:06:54.310Z,53732.56
2023-01-19T04:09:20.709Z,53730.50
2023-01-19T04:11:46.999Z,53697.41
2023-01-19T04:14:13.767Z,53707.75
2023-01-19T04:16:40.091Z,53670.53
2023-01-19T04:19:06.433Z,53680.88
2023-01-19T04:21:32.725Z,53691.22
2023-01-19T04:23:59.543Z,53664.34
2023-01-19T04:26:25.863Z,53641.59
2023-01-19T04:28:52.214Z,53635.41
2023-01-19T04:31:19.299Z,53633.31
2023-01-19T04:33:45.679Z,53654.00
2023-01-19T04:36:11.988Z,53620.91
2023-01-19T04:38:38.448Z,53623.00
2023-01-19T04:41:04.843Z,53637.47
2023-01-19T04:43:31.282Z,53637.47
2023-01-19T04:45:57.629Z,53618.84
2023-01-19T04:48:23.956Z,53594.03
2023-01-19T04:50:50.915Z,53614.72
2023-01-19T04:53:18.396Z,53627.13
2023-01-19T04:55:44.746Z,53612.66
2023-01-19T04:58:11.036Z,53598.19
2023-01-19T05:00:37.326Z,53594.03
2023-01-19T05:03:05.423Z,53623.00
2023-01-19T05:05:33.061Z,53620.91
2023-01-19T05:07:59.431Z,53623.00
2023-01-19T05:10:26.313Z,53608.50
2023-01-19T05:12:52.702Z,53606.44
2023-01-19T05:15:19.083Z,53614.72
2023-01-19T05:17:45.443Z,53591.97
2023-01-19T05:20:14.329Z,53602.31
2023-01-19T05:22:42.077Z,53606.44
2023-01-19T05:25:08.744Z,53610.59
2023-01-19T05:27:35.555Z,53612.66
2023-01-19T05:30:01.889Z,53594.03
2023-01-19T05:32:28.183Z,53583.72
2023-01-19T05:34:54.464Z,53598.19
2023-01-19T05:37:20.735Z,53604.38
2023-01-19T05:39:47.029Z,53567.16
2023-01-19T05:42:13.642Z,53571.31
2023-01-19T05:44:39.992Z,53569.22
2023-01-19T05:47:06.531Z,53583.72
2023-01-19T05:49:32.825Z,53538.22
2023-01-19T05:51:59.177Z,53579.56
2023-01-19T05:54:25.592Z,53571.31
2023-01-19T05:56:52.209Z,53577.50
2023-01-19T05:59:23.885Z,53542.34
2023-01-19T06:01:51.215Z,53589.91
2023-01-19T06:04:17.532Z,53565.09
2023-01-19T06:06:44.941Z,53552.69
2023-01-19T06:09:11.305Z,53558.91
2023-01-19T06:11:37.591Z,53550.63
2023-01-19T06:14:03.985Z,53573.38
2023-01-19T06:16:30.486Z,53563.03
2023-01-19T06:18:56.823Z,53558.91
2023-01-19T06:21:23.116Z,53571.31
2023-01-19T06:23:49.420Z,53523.75
2023-01-19T06:26:15.703Z,53529.94
2023-01-19T06:28:42.088Z,53534.09
2023-01-19T06:31:08.467Z,53507.22
2023-01-19T06:33:34.787Z,53505.16
2023-01-19T06:36:01.101Z,53521.69
2023-01-19T06:38:27.790Z,53544.44
2023-01-19T06:40:54.926Z,53517.53
2023-01-19T06:43:21.425Z,53494.81
2023-01-19T06:45:48.002Z,53534.09
2023-01-19T06:48:14.416Z,53511.34
2023-01-19T06:50:40.789Z,53552.69
2023-01-19T06:53:07.112Z,53532.03
2023-01-19T06:55:35.614Z,53505.16
2023-01-19T06:58:02.277Z,53501.00
2023-01-19T07:00:29.002Z,53521.69
2023-01-19T07:02:55.355Z,53525.81
2023-01-19T07:05:22.133Z,53515.47
2023-01-19T07:07:55.014Z,53484.47
2023-01-19T07:10:21.670Z,53501.00
2023-01-19T07:12:47.963Z,53507.22
2023-01-19T07:15:15.380Z,53501.00
2023-01-19T07:17:42.174Z,53513.41
2023-01-19T07:20:14.092Z,53523.75
2023-01-19T07:22:41.968Z,53525.81
2023-01-19T07:25:08.661Z,53552.69
2023-01-19T07:27:35.161Z,53511.34
2023-01-19T07:30:01.637Z,53532.03
2023-01-19T07:32:28.603Z,53501.00
2023-01-19T07:34:54.870Z,53492.75
2023-01-19T07:37:21.215Z,53517.53
2023-01-19T07:39:47.544Z,53544.44
2023-01-19T07:42:13.897Z,53542.34
2023-01-19T07:44:41.819Z,53536.16
2023-01-19T07:47:11.083Z,53515.47
2023-01-19T07:49:37.381Z,53544.44
2023-01-19T07:52:03.712Z,53538.22
2023-01-19T07:54:30.000Z,53525.81
2023-01-19T07:56:56.304Z,53527.88
2023-01-19T07:59:22.680Z,53536.16
2023-01-19T08:01:49.083Z,53546.50
2023-01-19T08:04:15.494Z,53534.09
2023-01-19T08:06:43.667Z,53513.41
2023-01-19T08:09:10.422Z,53519.63
2023-01-19T08:11:36.965Z,53527.88
2023-01-19T08:14:03.417Z,53521.69
2023-01-19T08:16:29.731Z,53509.28
2023-01-19T08:18:56.040Z,53505.16
2023-01-19T08:21:22.388Z,53532.03
2023-01-19T08:23:52.823Z,53532.03
2023-01-19T08:26:20.298Z,53536.16
2023-01-19T08:28:46.784Z,53556.81
2023-01-19T08:31:20.344Z,53540.28
2023-01-19T08:33:48.053Z,53538.22
2023-01-19T08:36:14.400Z,53523.75
2023-01-19T08:38:43.544Z,53496.88
2023-01-19T08:41:10.455Z,53529.94
2023-01-19T08:43:37.945Z,53517.53
2023-01-19T08:46:04.462Z,53509.28
2023-01-19T08:48:30.855Z,53509.28
2023-01-19T08:50:57.259Z,53527.88
2023-01-19T08:53:23.834Z,53529.94
2023-01-19T08:55:50.328Z,53519.63
2023-01-19T08:58:16.701Z,53496.88
2023-01-19T09:00:42.999Z,53492.75
2023-01-19T09:03:10.793Z,53546.50
2023-01-19T09:05:38.690Z,53534.09
2023-01-19T09:08:06.092Z,53513.41
2023-01-19T09:10:35.981Z,53517.53
2023-01-19T09:13:04.291Z,53511.34
2023-01-19T09:15:32.370Z,53509.28
2023-01-19T09:17:59.007Z,53525.81
2023-01-19T09:20:25.601Z,53501.00
2023-01-19T09:22:51.910Z,53540.28
2023-01-19T09:25:18.215Z,53515.47
2023-01-19T09:27:44.746Z,53532.03
2023-01-19T09:30:11.436Z,53498.94
2023-01-19T09:32:37.750Z,53505.16
2023-01-19T09:35:04.147Z,53550.63
2023-01-19T09:37:30.430Z,53525.81
2023-01-19T09:39:56.814Z,53540.28
2023-01-19T09:42:24.570Z,53517.53
2023-01-19T09:44:54.614Z,53519.63
2023-01-19T09:47:37.229Z,53560.97
2023-01-19T09:50:05.430Z,53534.09
2023-01-19T09:52:31.962Z,53544.44
2023-01-19T09:54:58.956Z,53565.09
2023-01-19T09:57:25.623Z,53525.81
2023-01-19T09:59:57.725Z,53525.81
2023-01-19T10:02:37.089Z,53517.53
2023-01-19T10:05:03.415Z,53511.34
2023-01-19T10:07:35.707Z,53505.16
2023-01-19T10:10:20.939Z,53523.75
2023-01-19T10:12:47.253Z,53507.22
2023-01-19T10:15:15.759Z,53521.69
2023-01-19T10:17:48.421Z,53534.09
2023-01-19T10:20:28.337Z,53496.88
2023-01-19T10:22:54.715Z,53507.22
2023-01-19T10:25:23.585Z,53540.28
2023-01-19T10:27:49.919Z,53548.56
2023-01-19T10:30:23.370Z,53544.44
2023-01-19T10:32:50.204Z,53554.75
2023-01-19T10:35:21.749Z,53569.22
2023-01-19T10:37:48.403Z,53558.91
2023-01-19T10:40:23.798Z,53552.69
2023-01-19T10:42:50.081Z,53546.50
2023-01-19T10:45:21.013Z,53542.34
2023-01-19T10:47:47.956Z,53552.69
2023-01-19T10:50:28.138Z,53554.75
2023-01-19T10:52:55.499Z,53577.50
2023-01-19T10:55:48.135Z,53567.16
2023-01-19T10:58:27.520Z,53565.09
2023-01-19T11:00:54.006Z,53602.31
2023-01-19T11:03:22.575Z,53563.03
2023-01-19T11:05:48.967Z,53573.38
2023-01-19T11:08:22.923Z,53581.63
2023-01-19T11:10:54.585Z,53579.56
2023-01-19T11:13:20.878Z,53591.97
2023-01-19T11:15:52.316Z,53612.66
2023-01-19T11:18:24.654Z,53604.38
2023-01-19T11:20:51.936Z,53604.38
2023-01-19T11:23:30.900Z,53596.13
2023-01-19T11:25:58.604Z,53645.72
2023-01-19T11:28:35.320Z,53587.84
2023-01-19T11:31:04.726Z,53602.31
2023-01-19T11:33:39.819Z,53610.59
2023-01-19T11:36:18.738Z,53596.13
2023-01-19T11:38:45.744Z,53585.78
2023-01-19T11:41:32.250Z,53577.50
2023-01-19T11:44:00.369Z,53577.50
2023-01-19T11:46:37.544Z,53567.16
2023-01-19T11:49:11.994Z,53571.31
2023-01-19T11:52:04.586Z,53546.50
2023-01-19T11:54:40.130Z,53591.97
2023-01-19T11:57:10.507Z,53596.13
2023-01-19T11:59:41.603Z,53565.09
2023-01-19T12:02:20.961Z,53571.31
2023-01-19T12:04:48.704Z,53602.31
2023-01-19T12:07:18.841Z,53579.56
2023-01-19T12:09:45.640Z,53575.44
2023-01-19T12:12:13.989Z,53585.78
2023-01-19T12:14:55.324Z,53596.13
2023-01-19T12:17:26.002Z,53581.63
2023-01-19T12:19:55.296Z,53577.50
2023-01-19T12:22:22.504Z,53585.78
2023-01-19T12:25:05.147Z,53571.31
2023-01-19T12:27:37.085Z,53612.66
2023-01-19T12:30:04.936Z,53618.84
2023-01-19T12:32:35.498Z,53583.72
2023-01-19T12:35:01.917Z,53602.31
2023-01-19T12:37:29.870Z,53641.59
2023-01-19T12:40:18.391Z,53612.66
2023-01-19T12:42:47.182Z,53620.91
2023-01-19T12:45:14.126Z,53606.44
2023-01-19T12:47:40.523Z,53608.50
2023-01-19T12:50:07.691Z,53614.72
2023-01-19T12:52:37.277Z,53618.84
2023-01-19T12:55:13.093Z,53641.59
2023-01-19T12:57:58.256Z,53623.00
2023-01-19T13:00:24.569Z,53633.31
2023-01-19T13:02:51.215Z,53672.59
2023-01-19T13:05:33.578Z,53641.59
2023-01-19T13:08:03.049Z,53629.19
2023-01-19T13:10:49.683Z,53641.59
2023-01-19T13:13:20.253Z,53680.88
2023-01-19T13:15:46.828Z,53703.63
2023-01-19T13:18:31.245Z,53674.69
2023-01-19T13:20:57.495Z,53699.50
2023-01-19T13:23:43.750Z,53670.53
2023-01-19T13:26:10.930Z,53678.81
2023-01-19T13:28:44.749Z,53695.34
2023-01-19T13:31:11.233Z,53670.53
2023-01-19T13:33:45.901Z,53672.59
2023-01-19T13:36:38.659Z,53658.13
2023-01-19T13:39:06.257Z,53658.13
2023-01-19T13:41:36.397Z,53631.25
2023-01-19T13:44:23.698Z,53687.09
2023-01-19T13:46:50.386Z,53678.81
2023-01-19T13:49:35.655Z,53666.41
2023-01-19T13:52:11.156Z,53689.16
2023-01-19T13:54:37.555Z,53670.53
2023-01-19T13:57:03.916Z,53664.34
2023-01-19T13:59:31.579Z,53701.56
2023-01-19T14:01:58.129Z,53693.28
2023-01-19T14:04:29.161Z,53685.00
2023-01-19T14:06:56.828Z,53664.34
2023-01-19T14:09:23.275Z,53682.94
2023-01-19T14:12:07.236Z,53695.34
2023-01-19T14:14:33.736Z,53689.16
2023-01-19T14:17:00.205Z,53685.00
2023-01-19T14:19:26.535Z,53682.94
2023-01-19T14:22:00.165Z,53713.97
2023-01-19T14:24:29.675Z,53697.41
2023-01-19T14:27:09.887Z,53670.53
2023-01-19T14:29:36.565Z,53674.69
2023-01-19T14:32:16.055Z,53691.22
2023-01-19T14:34:45.871Z,53687.09
2023-01-19T14:37:25.581Z,53685.00
2023-01-19T14:39:53.331Z,53738.78
2023-01-19T14:42:30.250Z,53689.16
2023-01-19T14:44:57.134Z,53662.28
2023-01-19T14:47:33.846Z,53685.00
2023-01-19T14:50:03.557Z,53691.22
2023-01-19T14:52:31.298Z,53695.34
2023-01-19T14:54:57.641Z,53711.91
2023-01-19T14:57:23.990Z,53742.91
2023-01-19T14:59:50.324Z,53724.28
2023-01-19T15:02:19.038Z,53724.28
2023-01-19T15:04:46.578Z,53701.56
2023-01-19T15:07:19.530Z,53724.28
2023-01-19T15:09:46.619Z,53722.22
2023-01-19T15:12:13.580Z,53699.50
2023-01-19T15:14:40.475Z,53691.22
2023-01-19T15:17:06.816Z,53691.22
2023-01-19T15:19:33.125Z,53662.28
2023-01-19T15:21:59.581Z,53699.50
2023-01-19T15:24:25.861Z,53703.63
2023-01-19T15:26:52.269Z,53662.28
2023-01-19T15:29:25.405Z,53656.06
2023-01-19T15:31:51.959Z,53701.56
2023-01-19T15:34:18.386Z,53664.34
2023-01-19T15:36:44.816Z,53689.16
2023-01-19T15:39:11.196Z,53680.88
2023-01-19T15:41:38.173Z,53682.94
2023-01-19T15:44:06.121Z,53713.97
2023-01-19T15:46:32.954Z,53695.34
2023-01-19T15:48:59.633Z,53687.09
2023-01-19T15:51:26.156Z,53666.41
2023-01-19T15:53:52.682Z,53666.41
2023-01-19T15:56:21.002Z,53680.88
2023-01-19T15:58:47.376Z,53693.28
2023-01-19T16:01:14.385Z,53674.69
2023-01-19T16:03:41.033Z,53666.41
2023-01-19T16:06:07.639Z,53678.81
2023-01-19T16:08:34.125Z,53633.31
2023-01-19T16:11:07.115Z,53654.00
2023-01-19T16:13:33.814Z,53662.28
2023-01-19T16:16:04.222Z,53664.34
2023-01-19T16:18:30.613Z,53705.69
2023-01-19T16:20:56.931Z,53676.75
2023-01-19T16:23:23.221Z,53685.00
2023-01-19T16:26:07.776Z,53699.50
2023-01-19T16:28:37.535Z,53660.19
2023-01-19T16:31:03.982Z,53693.28
2023-01-19T16:33:30.696Z,53687.09
2023-01-19T16:35:57.247Z,53666.41
2023-01-19T16:38:23.616Z,53668.47
2023-01-19T16:40:49.940Z,53672.59
2023-01-19T16:43:16.448Z,53680.88
2023-01-19T16:45:59.336Z,53676.75
2023-01-19T16:48:25.826Z,53668.47
2023-01-19T16:51:02.478Z,53649.88
2023-01-19T16:53:28.949Z,53680.88
2023-01-19T16:55:55.309Z,53666.41
2023-01-19T16:58:21.716Z,53674.69
2023-01-19T17:00:48.184Z,53666.41
2023-01-19T17:03:14.556Z,53645.72
2023-01-19T17:05:40.868Z,53660.19
2023-01-19T17:08:07.170Z,53670.53
2023-01-19T17:10:35.974Z,53668.47
2023-01-19T17:13:03.884Z,53678.81
2023-01-19T17:15:30.542Z,53676.75
2023-01-19T17:17:56.826Z,53687.09
2023-01-19T17:20:23.130Z,53689.16
2023-01-19T17:22:49.404Z,53658.13
2023-01-19T17:25:15.696Z,53674.69
2023-01-19T17:27:42.046Z,53656.06
2023-01-19T17:30:08.714Z,53664.34
2023-01-19T17:32:35.731Z,53645.72
2023-01-19T17:35:02.067Z,53670.53
2023-01-19T17:37:28.373Z,53649.88
2023-01-19T17:39:54.903Z,53654.00
2023-01-19T17:42:21.480Z,53674.69
2023-01-19T17:44:47.800Z,53649.88
2023-01-19T17:47:14.091Z,53660.19
2023-01-19T17:49:40.434Z,53654.00
2023-01-19T17:52:06.789Z,53660.19
2023-01-19T17:54:33.775Z,53664.34
2023-01-19T17:57:00.145Z,53662.28
2023-01-19T17:59:26.422Z,53639.53
2023-01-19T18:01:52.799Z,53649.88
2023-01-19T18:04:19.130Z,53664.34
2023-01-19T18:06:47.024Z,53654.00
2023-01-19T18:09:13.310Z,53658.13
2023-01-19T18:11:39.715Z,53637.47
2023-01-19T18:14:06.593Z,53660.19
2023-01-19T18:16:32.944Z,53641.59
2023-01-19T18:18:59.326Z,53645.72
2023-01-19T18:21:27.964Z,53643.66
2023-01-19T18:23:58.585Z,53662.28
2023-01-19T18:26:24.911Z,53693.28
2023-01-19T18:28:52.732Z,53654.00
2023-01-19T18:31:19.127Z,53643.66
2023-01-19T18:33:45.570Z,53658.13
2023-01-19T18:36:11.884Z,53664.34
2023-01-19T18:38:38.443Z,53639.53
2023-01-19T18:41:04.865Z,53616.78
2023-01-19T18:43:31.223Z,53656.06
2023-01-19T18:45:57.656Z,53647.81
2023-01-19T18:48:24.039Z,53660.19
2023-01-19T18:50:50.452Z,53656.06
2023-01-19T18:53:16.764Z,53645.72
2023-01-19T18:55:52.925Z,53649.88
2023-01-19T18:58:19.559Z,53641.59
2023-01-19T19:00:46.313Z,53633.31
2023-01-19T19:03:12.693Z,53654.00
2023-01-19T19:05:39.149Z,53660.19
2023-01-19T19:08:05.565Z,53682.94
2023-01-19T19:10:31.913Z,53637.47
2023-01-19T19:12:58.241Z,53658.13
2023-01-19T19:15:24.653Z,53658.13
2023-01-19T19:17:50.967Z,53662.28
2023-01-19T19:20:17.562Z,53674.69
2023-01-19T19:22:43.853Z,53662.28
2023-01-19T19:25:10.165Z,53654.00
2023-01-19T19:27:36.905Z,53660.19
2023-01-19T19:30:03.482Z,53649.88
2023-01-19T19:32:29.803Z,53660.19
2023-01-19T19:34:58.018Z,53645.72
2023-01-19T19:37:24.619Z,53643.66
2023-01-19T19:39:51.027Z,53629.19
2023-01-19T19:42:17.324Z,53641.59
2023-01-19T19:44:43.692Z,53674.69
2023-01-19T19:47:10.035Z,53629.19
2023-01-19T19:49:39.006Z,53658.13
2023-01-19T19:52:05.288Z,53641.59
2023-01-19T19:54:31.632Z,53637.47
2023-01-19T19:56:58.111Z,53637.47
2023-01-19T19:59:24.505Z,53668.47
2023-01-19T20:01:53.571Z,53604.38
2023-01-19T20:04:22.761Z,53625.06
2023-01-19T20:06:49.280Z,53643.66
2023-01-19T20:09:16.080Z,53612.66
2023-01-19T20:11:42.805Z,53625.06
2023-01-19T20:14:10.215Z,53618.84
2023-01-19T20:16:36.647Z,53623.00
2023-01-19T20:19:03.373Z,53635.41
2023-01-19T20:21:30.672Z,53606.44
2023-01-19T20:23:59.507Z,53608.50
2023-01-19T20:26:27.064Z,53579.56
2023-01-19T20:28:53.841Z,53587.84
2023-01-19T20:31:24.318Z,53614.72
2023-01-19T20:33:51.274Z,53585.78
2023-01-19T20:36:17.658Z,53625.06
2023-01-19T20:38:44.291Z,53600.25
2023-01-19T20:41:11.191Z,53612.66
2023-01-19T20:43:37.490Z,53635.41
2023-01-19T20:46:03.910Z,53591.97
2023-01-19T20:48:30.344Z,53560.97
2023-01-19T20:50:59.650Z,53558.91
2023-01-19T20:53:26.203Z,53583.72
2023-01-19T20:55:52.861Z,53575.44
2023-01-19T20:58:19.206Z,53569.22
2023-01-19T21:00:45.684Z,53575.44
2023-01-19T21:03:12.028Z,53525.81
2023-01-19T21:05:38.335Z,53525.81
2023-01-19T21:08:05.436Z,53546.50
2023-01-19T21:10:31.938Z,53544.44
2023-01-19T21:12:58.325Z,53513.41
2023-01-19T21:15:26.101Z,53521.69
2023-01-19T21:17:52.629Z,53538.22
2023-01-19T21:20:19.297Z,53515.47
2023-01-19T21:22:45.793Z,53494.81
2023-01-19T21:25:12.381Z,53505.16
2023-01-19T21:27:38.883Z,53486.53
2023-01-19T21:30:05.654Z,53498.94
2023-01-19T21:32:31.938Z,53484.47
2023-01-19T21:34:58.263Z,53490.66
2023-01-19T21:37:24.567Z,53503.06
2023-01-19T21:39:50.992Z,53509.28
2023-01-19T21:42:17.283Z,53525.81
2023-01-19T21:44:43.592Z,53492.75
2023-01-19T21:47:11.895Z,53503.06
2023-01-19T21:49:38.311Z,53459.66
2023-01-19T21:52:04.695Z,53467.94
2023-01-19T21:54:30.968Z,53451.38
2023-01-19T21:56:57.276Z,53457.59
2023-01-19T21:59:23.602Z,53438.97
2023-01-19T22:01:50.171Z,53451.38
2023-01-19T22:04:16.599Z,53461.72
2023-01-19T22:06:42.923Z,53455.53
2023-01-19T22:09:09.289Z,53465.88
2023-01-19T22:11:35.841Z,53465.88
2023-01-19T22:14:02.204Z,53496.88
2023-01-19T22:16:28.867Z,53455.53
2023-01-19T22:18:57.503Z,53470.00
2023-01-19T22:21:24.480Z,53432.78
2023-01-19T22:23:51.401Z,53451.38
2023-01-19T22:26:17.821Z,53467.94
2023-01-19T22:28:44.213Z,53490.66
2023-01-19T22:31:15.650Z,53451.38
2023-01-19T22:33:42.355Z,53467.94
2023-01-19T22:36:09.779Z,53443.13
2023-01-19T22:38:36.074Z,53434.84
2023-01-19T22:41:10.520Z,53412.09
2023-01-19T22:43:36.799Z,53428.66
2023-01-19T22:46:04.185Z,53410.03
2023-01-19T22:48:30.999Z,53426.59
2023-01-19T22:50:57.288Z,53447.25
2023-01-19T22:53:23.546Z,53383.16
2023-01-19T22:55:50.148Z,53410.03
2023-01-19T22:58:16.430Z,53457.59
2023-01-19T23:00:42.880Z,53426.59
2023-01-19T23:03:09.288Z,53414.19
2023-01-19T23:05:36.021Z,53434.84
2023-01-19T23:08:02.370Z,53397.63
2023-01-19T23:10:28.724Z,53389.38
2023-01-19T23:12:55.023Z,53393.50
2023-01-19T23:15:21.708Z,53412.09
2023-01-19T23:17:52.710Z,53395.56
2023-01-19T23:20:19.463Z,53381.09
2023-01-19T23:22:45.769Z,53410.03
2023-01-19T23:25:12.390Z,53374.91
2023-01-19T23:27:38.863Z,53381.09
2023-01-19T23:30:05.347Z,53414.19
2023-01-19T23:32:31.647Z,53422.44
2023-01-19T23:34:57.930Z,53383.16
2023-01-19T23:37:24.198Z,53420.38
2023-01-19T23:39:50.538Z,53391.44
2023-01-19T23:42:16.824Z,53416.25
2023-01-19T23:44:43.940Z,53407.97
2023-01-19T23:47:10.239Z,53422.44
2023-01-19T23:49:36.571Z,53418.31
2023-01-19T23:52:02.903Z,53410.03
2023-01-19T23:54:29.255Z,53414.19
2023-01-19T23:56:55.550Z,53414.19
2023-01-19T23:59:21.825Z,53418.31
